Maybe — 2ASG3 — position and weather

sailwx.info

Track history (hours):
 
Tides and Currents Weather Stations Pressure Air Temp Water Temp Dewpoint Dewpoint Depression Visibility Wind Speed Wind Dir Waves Ship Positions

Maybe

Last reported at 2019-Sep-14 15:26 UTC. Time now 2019-Sep-21 17:14 UTC.
Position N 53°38' W 003°33'.

Length 28 m.

Type: Pleasure craft. MMSI: 235062552.

Date/timePositionNaut miles runAvg speedWind from/ knotsBaromVisibWave heightAir tempDewpointWater temp
2019-Sep-14 15:26N 53°38' W 003°33'3 5.7
2019-Sep-14 14:58N 53°37' W 003°29'3 6.3
2019-Sep-14 14:30N 53°36' W 003°25'3 6.2
2019-Sep-14 14:00N 53°34' W 003°21'3 6.1
2019-Sep-14 13:29N 53°32' W 003°16'3 5.8
2019-Sep-14 13:00N 53°32' W 003°12'3 6.3
2019-Sep-14 12:30N 53°31' W 003°07'3 6.4
2019-Sep-14 12:00N 53°28' W 003°04'3 5.3
2019-Sep-14 11:30N 53°26' W 003°01'2 3.8
2019-Sep-14 11:00N 53°24' W 003°00'1 1.0
2019-Sep-14 10:29N 53°24' W 002°59'0 0.0
2019-Sep-14 09:59N 53°24' W 002°59'0 0.0
2019-Sep-14 09:29N 53°24' W 002°59'0 0.0
2019-Sep-14 08:59N 53°24' W 002°59'0 0.0
2019-Sep-14 08:29N 53°24' W 002°59'0 0.0
2019-Sep-14 07:59N 53°24' W 002°59'0 0.0
2019-Sep-14 07:29N 53°24' W 002°59'0 0.0
2019-Sep-14 06:59N 53°24' W 002°59'0 0.0
2019-Sep-14 06:29N 53°24' W 002°59'0 0.0
2019-Sep-14 05:59N 53°24' W 002°59'0 0.0
2019-Sep-14 05:29N 53°24' W 002°59'0 0.0
2019-Sep-14 04:59N 53°24' W 002°59'0 0.0
2019-Sep-14 04:29N 53°24' W 002°59'0 0.0
2019-Sep-14 03:59N 53°24' W 002°59'0 0.0
2019-Sep-14 03:29N 53°24' W 002°59'0 0.0
2019-Sep-14 02:59N 53°24' W 002°59'0 0.0
2019-Sep-14 02:29N 53°24' W 002°59'0 0.0
2019-Sep-14 01:59N 53°24' W 002°59'0 0.0
2019-Sep-14 01:29N 53°24' W 002°59'0 0.0
2019-Sep-14 00:59N 53°24' W 002°59'0 0.0
2019-Sep-14 00:29N 53°24' W 002°59'0 0.0
2019-Sep-13 23:59N 53°24' W 002°59'0 0.0
2019-Sep-13 23:29N 53°24' W 002°59'0 0.0
2019-Sep-13 22:59N 53°24' W 002°59'0 0.0
2019-Sep-13 22:29N 53°24' W 002°59'0 0.0
2019-Sep-13 21:59N 53°24' W 002°59'0 0.0
2019-Sep-13 21:29N 53°24' W 002°59'0 0.0
2019-Sep-13 20:59N 53°24' W 002°59'0 0.0
2019-Sep-13 20:29N 53°24' W 002°59'0 0.0
2019-Sep-13 19:59N 53°24' W 002°59'0 0.0
2019-Sep-13 19:29N 53°24' W 002°59'0 0.0
2019-Sep-13 18:59N 53°24' W 002°59'0 0.0
2019-Sep-13 18:29N 53°24' W 002°59'0 0.0
2019-Sep-13 17:59N 53°24' W 002°59'0 0.0
2019-Sep-13 17:29N 53°24' W 002°59'0 0.0
2019-Sep-13 16:59N 53°24' W 002°59'0 0.0
2019-Sep-13 16:29N 53°24' W 002°59'0 0.0
2019-Sep-13 15:59N 53°24' W 002°59'0 0.0
2019-Sep-13 15:29N 53°24' W 002°59'0 0.0
2019-Sep-13 14:56N 53°24' W 002°59'0 0.0
2019-Sep-13 14:29N 53°24' W 002°59'0 0.0
2019-Sep-13 13:59N 53°24' W 002°59'0 0.0
2019-Sep-13 13:29N 53°24' W 002°59'0 0.0
2019-Sep-13 12:59N 53°24' W 002°59'0 0.0
2019-Sep-13 12:29N 53°24' W 002°59'0 0.0
2019-Sep-13 11:59N 53°24' W 002°59'0 0.0
2019-Sep-13 11:29N 53°24' W 002°59'0 0.0
2019-Sep-13 10:59N 53°24' W 002°59'0 0.0
2019-Sep-13 10:26N 53°24' W 002°59'0 0.0
2019-Sep-13 09:59N 53°24' W 002°59'0 0.0
2019-Sep-13 09:29N 53°24' W 002°59'0 0.0
2019-Sep-13 08:59N 53°24' W 002°59'0 0.0
2019-Sep-13 08:26N 53°24' W 002°59'0 0.0
2019-Sep-13 07:59N 53°24' W 002°59'0 0.0
2019-Sep-13 07:29N 53°24' W 002°59'0 0.0
2019-Sep-13 06:59N 53°24' W 002°59'0 0.0
2019-Sep-13 06:29N 53°24' W 002°59'0 0.0
2019-Sep-13 05:59N 53°24' W 002°59'0 0.0
2019-Sep-13 05:29N 53°24' W 002°59'0 0.0
2019-Sep-13 04:59N 53°24' W 002°59'0 0.0
2019-Sep-13 04:29N 53°24' W 002°59'0 0.0
2019-Sep-13 03:59N 53°24' W 002°59'0 0.0
2019-Sep-13 03:29N 53°24' W 002°59'0 0.0
2019-Sep-13 02:59N 53°24' W 002°59'0 0.0
2019-Sep-13 02:29N 53°24' W 002°59'0 0.0
2019-Sep-13 01:29N 53°24' W 002°59'0 0.0
2019-Sep-13 00:59N 53°24' W 002°59'0 0.0
2019-Sep-13 00:29N 53°24' W 002°59'0 0.0
2019-Sep-12 23:59N 53°24' W 002°59'0 0.0
2019-Sep-12 23:29N 53°24' W 002°59'0 0.0
2019-Sep-12 22:59N 53°24' W 002°59'0 0.0
2019-Sep-12 22:29N 53°24' W 002°59'0 0.0
2019-Sep-12 21:59N 53°24' W 002°59'0 0.0
2019-Sep-12 21:29N 53°24' W 002°59'0 0.0
2019-Sep-12 20:59N 53°24' W 002°59'0 0.0
2019-Sep-12 20:29N 53°24' W 002°59'0 0.0
2019-Sep-12 19:59N 53°24' W 002°59'0 0.0
2019-Sep-12 19:29N 53°24' W 002°59'0 0.0
2019-Sep-12 18:59N 53°24' W 002°59'0 0.0
2019-Sep-12 18:29N 53°24' W 002°59'0 0.0
2019-Sep-12 17:59N 53°24' W 002°59'0 0.0
2019-Sep-12 17:29N 53°24' W 002°59'0 0.0
2019-Sep-12 16:59N 53°24' W 002°59'0 0.0
2019-Sep-12 16:29N 53°24' W 002°59'0 0.0
2019-Sep-12 15:53N 53°24' W 002°59'0 0.0
2019-Sep-12 15:29N 53°24' W 002°59'0 0.0
2019-Sep-12 14:59N 53°24' W 002°59'0 0.0
2019-Sep-12 14:29N 53°24' W 002°59'0 0.0
2019-Sep-12 13:59N 53°24' W 002°59'0 0.0
2019-Sep-12 13:29N 53°24' W 002°59'0 0.0
2019-Sep-12 12:59N 53°24' W 002°59'0 0.0
2019-Sep-12 12:29N 53°24' W 002°59'0 0.0
2019-Sep-12 11:59N 53°24' W 002°59'0 0.0
2019-Sep-12 11:29N 53°24' W 002°59'0 0.0
2019-Sep-12 10:59N 53°24' W 002°59'0 0.0
2019-Sep-12 10:29N 53°24' W 002°59'0 0.5
2019-Sep-12 10:00N 53°24' W 002°60'0 0.3
2019-Sep-12 09:30N 53°24' W 002°60'2 4.5
2019-Sep-12 09:00N 53°26' W 003°01'3 5.6
2019-Sep-12 08:30N 53°28' W 003°04'3 5.2
2019-Sep-12 08:00N 53°31' W 003°06'2 3.7
2019-Sep-12 07:30N 53°32' W 003°09'2 4.2
2019-Sep-12 07:00N 53°31' W 003°12'2 3.6
2019-Sep-12 06:30N 53°31' W 003°15'2 4.9
2019-Sep-12 06:01N 53°31' W 003°19'2 4.9
2019-Sep-12 05:30N 53°31' W 003°24'3 5.9
2019-Sep-12 05:00N 53°30' W 003°28'3 5.2
2019-Sep-12 04:29N 53°30' W 003°33'2 3.7
2019-Sep-12 04:00N 53°30' W 003°36'91 5.9
2019-Sep-11 12:31N 54°33' W 005°26'1 6.6
2019-Sep-11 12:25N 54°34' W 005°26'3 5.6
2019-Sep-11 11:58N 54°36' W 005°29'2 4.3
2019-Sep-11 11:23N 54°38' W 005°31'2 4.7
2019-Sep-11 11:00N 54°40' W 005°33'2 4.9
2019-Sep-11 10:30N 54°41' W 005°36'2 3.2
2019-Sep-11 10:00N 54°41' W 005°39'1 1.2
2019-Sep-11 09:29N 54°40' W 005°39'0 0.0
2019-Sep-11 08:53N 54°40' W 005°39'0 0.0
2019-Sep-11 08:29N 54°40' W 005°39'0 0.0
2019-Sep-11 07:59N 54°40' W 005°39'0 0.0
2019-Sep-11 07:29N 54°40' W 005°39'0 0.0
2019-Sep-11 06:59N 54°40' W 005°39'0 0.0
2019-Sep-11 06:26N 54°40' W 005°39'0 0.0
2019-Sep-11 05:53N 54°40' W 005°39'0 0.0
2019-Sep-11 05:29N 54°40' W 005°39'0 0.0
2019-Sep-11 04:56N 54°40' W 005°39'0 0.0
2019-Sep-11 04:29N 54°40' W 005°39'0 0.0
2019-Sep-11 03:59N 54°40' W 005°39'0 0.0
2019-Sep-11 03:29N 54°40' W 005°39'0 0.0
2019-Sep-11 02:56N 54°40' W 005°39'0 0.0
2019-Sep-11 02:29N 54°40' W 005°39'0 0.0
2019-Sep-11 01:56N 54°40' W 005°39'0 0.0
2019-Sep-11 01:29N 54°40' W 005°39'0 0.0
2019-Sep-11 00:59N 54°40' W 005°39'0 0.2
2019-Sep-11 00:26N 54°40' W 005°39'0 0.0
2019-Sep-10 23:59N 54°40' W 005°39'1 1.2
2019-Sep-10 23:30N 54°41' W 005°39'2 4.4
2019-Sep-10 22:59N 54°43' W 005°36'4 6.8
2019-Sep-10 22:27N 54°43' W 005°30'2 4.7
2019-Sep-10 22:00N 54°42' W 005°27'4 7.5
2019-Sep-10 21:27N 54°40' W 005°21'2 4.2
2019-Sep-10 20:53N 54°39' W 005°17'3 6.9
2019-Sep-10 20:30N 54°40' W 005°21'4 7.9
2019-Sep-10 19:58N 54°42' W 005°28'4 8.4
2019-Sep-10 19:28N 54°42' W 005°35'3 6.0
2019-Sep-10 19:00N 54°42' W 005°40'2 4.1
2019-Sep-10 18:29N 54°41' W 005°43'2 4.1
2019-Sep-10 18:00N 54°41' W 005°47'1 2.7
2019-Sep-10 17:29N 54°40' W 005°49'3 5.3
2019-Sep-10 17:00N 54°39' W 005°52'3 4.9
2019-Sep-10 16:26N 54°36' W 005°55'0 0.0
2019-Sep-10 15:49N 54°36' W 005°55'0 0.0
2019-Sep-10 15:28N 54°36' W 005°55'0 0.0
2019-Sep-10 14:58N 54°36' W 005°55'0 0.0
2019-Sep-10 07:32N 54°36' W 005°55'0 0.0
2019-Sep-10 07:26N 54°36' W 005°55'0 0.0
2019-Sep-10 06:59N 54°36' W 005°55'0 0.0
2019-Sep-10 06:26N 54°36' W 005°55'0 0.0
2019-Sep-10 05:56N 54°36' W 005°55'0 0.0
2019-Sep-10 05:20N 54°36' W 005°55'0 0.0
2019-Sep-10 04:56N 54°36' W 005°55'0 0.0
2019-Sep-10 04:29N 54°36' W 005°55'0 0.0
2019-Sep-10 03:59N 54°36' W 005°55'0 0.0
2019-Sep-10 03:28N 54°36' W 005°55'0 0.0
2019-Sep-10 02:56N 54°36' W 005°55'0 0.0
2019-Sep-10 02:29N 54°36' W 005°55'0 0.0
2019-Sep-10 01:59N 54°36' W 005°55'0 0.0
2019-Sep-10 01:29N 54°36' W 005°55'0 0.0
2019-Sep-10 00:56N 54°36' W 005°55'0 0.0
2019-Sep-10 00:29N 54°36' W 005°55'0 0.0
2019-Sep-09 23:59N 54°36' W 005°55'0 0.0
2019-Sep-09 23:29N 54°36' W 005°55'0 0.0
2019-Sep-09 22:53N 54°36' W 005°55'0 0.0
2019-Sep-09 22:26N 54°36' W 005°55'0 0.0
2019-Sep-09 21:59N 54°36' W 005°55'0 0.0
2019-Sep-09 21:26N 54°36' W 005°55'0 0.0
2019-Sep-09 20:35N 54°36' W 005°55'0 0.1
2019-Sep-09 20:29N 54°36' W 005°55'0 0.0
2019-Sep-09 19:56N 54°36' W 005°55'0 0.0
2019-Sep-09 19:29N 54°36' W 005°55'0 0.0
2019-Sep-09 18:59N 54°36' W 005°55'0 0.0
2019-Sep-09 18:17N 54°36' W 005°55'0 0.0
2019-Sep-09 17:53N 54°36' W 005°55'0 0.0
2019-Sep-09 17:29N 54°36' W 005°55'0 0.0
2019-Sep-09 16:59N 54°36' W 005°55'0 0.0
2019-Sep-09 16:23N 54°36' W 005°55'0 0.0
2019-Sep-09 15:59N 54°36' W 005°55'0 0.0
2019-Sep-09 15:26N 54°36' W 005°55'0 0.0
2019-Sep-09 14:57N 54°36' W 005°55'0 0.0
2019-Sep-09 14:27N 54°36' W 005°55'0 0.0
2019-Sep-09 14:00N 54°36' W 005°55'0 0.0
2019-Sep-09 13:21N 54°36' W 005°55'0 0.0
2019-Sep-09 12:54N 54°36' W 005°55'0 0.0
2019-Sep-09 12:24N 54°36' W 005°55'0 0.0
2019-Sep-09 12:00N 54°36' W 005°55'0 0.0
2019-Sep-09 11:21N 54°36' W 005°55'0 0.8
2019-Sep-09 10:56N 54°37' W 005°55'3 5.7
2019-Sep-09 10:28N 54°39' W 005°52'3 5.3
2019-Sep-09 09:56N 54°40' W 005°48'2 5.3
2019-Sep-09 09:30N 54°41' W 005°44'3 5.1
2019-Sep-09 09:00N 54°40' W 005°40'1 1.2
2019-Sep-09 08:29N 54°40' W 005°39'0 0.0
2019-Sep-09 07:53N 54°40' W 005°39'0 0.0
2019-Sep-09 07:29N 54°40' W 005°39'0 0.1
2019-Sep-09 06:59N 54°40' W 005°39'0 0.0
2019-Sep-09 06:26N 54°40' W 005°39'0 0.0
2019-Sep-09 05:59N 54°40' W 005°39'0 0.0
2019-Sep-09 05:29N 54°40' W 005°39'0 0.0
2019-Sep-09 04:59N 54°40' W 005°39'0 0.0
2019-Sep-09 04:29N 54°40' W 005°39'0 0.0
2019-Sep-09 03:59N 54°40' W 005°39'0 0.4
2019-Sep-09 03:30N 54°41' W 005°39'2 4.3
2019-Sep-09 02:59N 54°42' W 005°36'4 4.4
2019-Sep-09 01:59N 54°42' W 005°28'6 4.9
2019-Sep-09 00:51N 54°38' W 005°22'6 4.6
2019-Sep-08 23:30N 54°33' W 005°15'  
2019-Sep-05 07:06N 53°07' W 005°58'2 5.5
2019-Sep-05 06:48N 53°06' W 005°59'1 4.9
2019-Sep-05 06:30N 53°04' W 005°60'2 4.8
2019-Sep-05 06:00N 53°02' W 006°01'2 4.8
2019-Sep-05 05:30N 52°59' W 006°02'1 1.0
2019-Sep-05 04:59N 52°59' W 006°02'0 0.0
2019-Sep-05 04:29N 52°59' W 006°02'0 0.0
2019-Sep-05 03:56N 52°59' W 006°02'0 0.0
2019-Sep-05 03:23N 52°59' W 006°02'0 0.0
2019-Sep-05 02:59N 52°59' W 006°02'0 0.0
2019-Sep-05 01:59N 52°59' W 006°02'0 0.0
2019-Sep-05 01:29N 52°59' W 006°02'0 0.0
2019-Sep-05 00:59N 52°59' W 006°02'0 0.0
2019-Sep-05 00:17N 52°59' W 006°02'0 0.0
2019-Sep-04 23:38N 52°59' W 006°02'0 0.0
2019-Sep-04 23:29N 52°59' W 006°02'0 0.0
2019-Sep-04 22:53N 52°59' W 006°02'0 0.0
2019-Sep-04 22:23N 52°59' W 006°02'0 0.0
2019-Sep-04 21:57N 52°59' W 006°02'0 0.0
2019-Sep-04 21:18N 52°59' W 006°02'0 0.0
2019-Sep-04 20:57N 52°59' W 006°02'0 0.0
2019-Sep-04 20:29N 52°59' W 006°02'0 0.0
2019-Sep-04 19:59N 52°59' W 006°02'0 0.0
2019-Sep-04 19:23N 52°59' W 006°02'0 0.0
2019-Sep-04 18:53N 52°59' W 006°02'0 0.0
2019-Sep-04 18:23N 52°59' W 006°02'0 0.0
2019-Sep-04 17:53N 52°59' W 006°02'0 0.0
2019-Sep-04 17:29N 52°59' W 006°02'0 0.0
2019-Sep-04 16:59N 52°59' W 006°02'0 0.0
2019-Sep-04 16:17N 52°59' W 006°02'0 0.0
2019-Sep-04 15:59N 52°59' W 006°02'  
Track history (hours):
 
Tides and Currents Weather Stations Pressure Air Temp Water Temp Dewpoint Dewpoint Depression Visibility Wind Speed Wind Dir Waves Ship Positions

Maybe

Last reported at 2019-Sep-14 15:26 UTC. Time now 2019-Sep-21 17:14 UTC.
Position N 53°38' W 003°33'.

Length 28 m.

Type: Pleasure craft. MMSI: 235062552.

Date/timePositionNaut miles runAvg speedWind from/ knotsBaromVisibWave heightAir tempDewpointWater temp
2019-Sep-14 15:26N 53°38' W 003°33'3 5.7
2019-Sep-14 14:58N 53°37' W 003°29'3 6.3
2019-Sep-14 14:30N 53°36' W 003°25'3 6.2
2019-Sep-14 14:00N 53°34' W 003°21'3 6.1
2019-Sep-14 13:29N 53°32' W 003°16'3 5.8
2019-Sep-14 13:00N 53°32' W 003°12'3 6.3
2019-Sep-14 12:30N 53°31' W 003°07'3 6.4
2019-Sep-14 12:00N 53°28' W 003°04'3 5.3
2019-Sep-14 11:30N 53°26' W 003°01'2 3.8
2019-Sep-14 11:00N 53°24' W 003°00'1 1.0
2019-Sep-14 10:29N 53°24' W 002°59'0 0.0
2019-Sep-14 09:59N 53°24' W 002°59'0 0.0
2019-Sep-14 09:29N 53°24' W 002°59'0 0.0
2019-Sep-14 08:59N 53°24' W 002°59'0 0.0
2019-Sep-14 08:29N 53°24' W 002°59'0 0.0
2019-Sep-14 07:59N 53°24' W 002°59'0 0.0
2019-Sep-14 07:29N 53°24' W 002°59'0 0.0
2019-Sep-14 06:59N 53°24' W 002°59'0 0.0
2019-Sep-14 06:29N 53°24' W 002°59'0 0.0
2019-Sep-14 05:59N 53°24' W 002°59'0 0.0
2019-Sep-14 05:29N 53°24' W 002°59'0 0.0
2019-Sep-14 04:59N 53°24' W 002°59'0 0.0
2019-Sep-14 04:29N 53°24' W 002°59'0 0.0
2019-Sep-14 03:59N 53°24' W 002°59'0 0.0
2019-Sep-14 03:29N 53°24' W 002°59'0 0.0
2019-Sep-14 02:59N 53°24' W 002°59'0 0.0
2019-Sep-14 02:29N 53°24' W 002°59'0 0.0
2019-Sep-14 01:59N 53°24' W 002°59'0 0.0
2019-Sep-14 01:29N 53°24' W 002°59'0 0.0
2019-Sep-14 00:59N 53°24' W 002°59'0 0.0
2019-Sep-14 00:29N 53°24' W 002°59'0 0.0
2019-Sep-13 23:59N 53°24' W 002°59'0 0.0
2019-Sep-13 23:29N 53°24' W 002°59'0 0.0
2019-Sep-13 22:59N 53°24' W 002°59'0 0.0
2019-Sep-13 22:29N 53°24' W 002°59'0 0.0
2019-Sep-13 21:59N 53°24' W 002°59'0 0.0
2019-Sep-13 21:29N 53°24' W 002°59'0 0.0
2019-Sep-13 20:59N 53°24' W 002°59'0 0.0
2019-Sep-13 20:29N 53°24' W 002°59'0 0.0
2019-Sep-13 19:59N 53°24' W 002°59'0 0.0
2019-Sep-13 19:29N 53°24' W 002°59'0 0.0
2019-Sep-13 18:59N 53°24' W 002°59'0 0.0
2019-Sep-13 18:29N 53°24' W 002°59'0 0.0
2019-Sep-13 17:59N 53°24' W 002°59'0 0.0
2019-Sep-13 17:29N 53°24' W 002°59'0 0.0
2019-Sep-13 16:59N 53°24' W 002°59'0 0.0
2019-Sep-13 16:29N 53°24' W 002°59'0 0.0
2019-Sep-13 15:59N 53°24' W 002°59'0 0.0
2019-Sep-13 15:29N 53°24' W 002°59'0 0.0
2019-Sep-13 14:56N 53°24' W 002°59'0 0.0
2019-Sep-13 14:29N 53°24' W 002°59'0 0.0
2019-Sep-13 13:59N 53°24' W 002°59'0 0.0
2019-Sep-13 13:29N 53°24' W 002°59'0 0.0
2019-Sep-13 12:59N 53°24' W 002°59'0 0.0
2019-Sep-13 12:29N 53°24' W 002°59'0 0.0
2019-Sep-13 11:59N 53°24' W 002°59'0 0.0
2019-Sep-13 11:29N 53°24' W 002°59'0 0.0
2019-Sep-13 10:59N 53°24' W 002°59'0 0.0
2019-Sep-13 10:26N 53°24' W 002°59'0 0.0
2019-Sep-13 09:59N 53°24' W 002°59'0 0.0
2019-Sep-13 09:29N 53°24' W 002°59'0 0.0
2019-Sep-13 08:59N 53°24' W 002°59'0 0.0
2019-Sep-13 08:26N 53°24' W 002°59'0 0.0
2019-Sep-13 07:59N 53°24' W 002°59'0 0.0
2019-Sep-13 07:29N 53°24' W 002°59'0 0.0
2019-Sep-13 06:59N 53°24' W 002°59'0 0.0
2019-Sep-13 06:29N 53°24' W 002°59'0 0.0
2019-Sep-13 05:59N 53°24' W 002°59'0 0.0
2019-Sep-13 05:29N 53°24' W 002°59'0 0.0
2019-Sep-13 04:59N 53°24' W 002°59'0 0.0
2019-Sep-13 04:29N 53°24' W 002°59'0 0.0
2019-Sep-13 03:59N 53°24' W 002°59'0 0.0
2019-Sep-13 03:29N 53°24' W 002°59'0 0.0
2019-Sep-13 02:59N 53°24' W 002°59'0 0.0
2019-Sep-13 02:29N 53°24' W 002°59'0 0.0
2019-Sep-13 01:29N 53°24' W 002°59'0 0.0
2019-Sep-13 00:59N 53°24' W 002°59'0 0.0
2019-Sep-13 00:29N 53°24' W 002°59'0 0.0
2019-Sep-12 23:59N 53°24' W 002°59'0 0.0
2019-Sep-12 23:29N 53°24' W 002°59'0 0.0
2019-Sep-12 22:59N 53°24' W 002°59'0 0.0
2019-Sep-12 22:29N 53°24' W 002°59'0 0.0
2019-Sep-12 21:59N 53°24' W 002°59'0 0.0
2019-Sep-12 21:29N 53°24' W 002°59'0 0.0
2019-Sep-12 20:59N 53°24' W 002°59'0 0.0
2019-Sep-12 20:29N 53°24' W 002°59'0 0.0
2019-Sep-12 19:59N 53°24' W 002°59'0 0.0
2019-Sep-12 19:29N 53°24' W 002°59'0 0.0
2019-Sep-12 18:59N 53°24' W 002°59'0 0.0
2019-Sep-12 18:29N 53°24' W 002°59'0 0.0
2019-Sep-12 17:59N 53°24' W 002°59'0 0.0
2019-Sep-12 17:29N 53°24' W 002°59'0 0.0
2019-Sep-12 16:59N 53°24' W 002°59'0 0.0
2019-Sep-12 16:29N 53°24' W 002°59'0 0.0
2019-Sep-12 15:53N 53°24' W 002°59'0 0.0
2019-Sep-12 15:29N 53°24' W 002°59'0 0.0
2019-Sep-12 14:59N 53°24' W 002°59'0 0.0
2019-Sep-12 14:29N 53°24' W 002°59'0 0.0
2019-Sep-12 13:59N 53°24' W 002°59'0 0.0
2019-Sep-12 13:29N 53°24' W 002°59'0 0.0
2019-Sep-12 12:59N 53°24' W 002°59'0 0.0
2019-Sep-12 12:29N 53°24' W 002°59'0 0.0
2019-Sep-12 11:59N 53°24' W 002°59'0 0.0
2019-Sep-12 11:29N 53°24' W 002°59'0 0.0
2019-Sep-12 10:59N 53°24' W 002°59'0 0.0
2019-Sep-12 10:29N 53°24' W 002°59'0 0.5
2019-Sep-12 10:00N 53°24' W 002°60'0 0.3
2019-Sep-12 09:30N 53°24' W 002°60'2 4.5
2019-Sep-12 09:00N 53°26' W 003°01'3 5.6
2019-Sep-12 08:30N 53°28' W 003°04'3 5.2
2019-Sep-12 08:00N 53°31' W 003°06'2 3.7
2019-Sep-12 07:30N 53°32' W 003°09'2 4.2
2019-Sep-12 07:00N 53°31' W 003°12'2 3.6
2019-Sep-12 06:30N 53°31' W 003°15'2 4.9
2019-Sep-12 06:01N 53°31' W 003°19'2 4.9
2019-Sep-12 05:30N 53°31' W 003°24'3 5.9
2019-Sep-12 05:00N 53°30' W 003°28'3 5.2
2019-Sep-12 04:29N 53°30' W 003°33'2 3.7
2019-Sep-12 04:00N 53°30' W 003°36'91 5.9
2019-Sep-11 12:31N 54°33' W 005°26'1 6.6
2019-Sep-11 12:25N 54°34' W 005°26'3 5.6
2019-Sep-11 11:58N 54°36' W 005°29'2 4.3
2019-Sep-11 11:23N 54°38' W 005°31'2 4.7
2019-Sep-11 11:00N 54°40' W 005°33'2 4.9
2019-Sep-11 10:30N 54°41' W 005°36'2 3.2
2019-Sep-11 10:00N 54°41' W 005°39'1 1.2
2019-Sep-11 09:29N 54°40' W 005°39'0 0.0
2019-Sep-11 08:53N 54°40' W 005°39'0 0.0
2019-Sep-11 08:29N 54°40' W 005°39'0 0.0
2019-Sep-11 07:59N 54°40' W 005°39'0 0.0
2019-Sep-11 07:29N 54°40' W 005°39'0 0.0
2019-Sep-11 06:59N 54°40' W 005°39'0 0.0
2019-Sep-11 06:26N 54°40' W 005°39'0 0.0
2019-Sep-11 05:53N 54°40' W 005°39'0 0.0
2019-Sep-11 05:29N 54°40' W 005°39'0 0.0
2019-Sep-11 04:56N 54°40' W 005°39'0 0.0
2019-Sep-11 04:29N 54°40' W 005°39'0 0.0
2019-Sep-11 03:59N 54°40' W 005°39'0 0.0
2019-Sep-11 03:29N 54°40' W 005°39'0 0.0
2019-Sep-11 02:56N 54°40' W 005°39'0 0.0
2019-Sep-11 02:29N 54°40' W 005°39'0 0.0
2019-Sep-11 01:56N 54°40' W 005°39'0 0.0
2019-Sep-11 01:29N 54°40' W 005°39'0 0.0
2019-Sep-11 00:59N 54°40' W 005°39'0 0.2
2019-Sep-11 00:26N 54°40' W 005°39'0 0.0
2019-Sep-10 23:59N 54°40' W 005°39'1 1.2
2019-Sep-10 23:30N 54°41' W 005°39'2 4.4
2019-Sep-10 22:59N 54°43' W 005°36'4 6.8
2019-Sep-10 22:27N 54°43' W 005°30'2 4.7
2019-Sep-10 22:00N 54°42' W 005°27'4 7.5
2019-Sep-10 21:27N 54°40' W 005°21'2 4.2
2019-Sep-10 20:53N 54°39' W 005°17'3 6.9
2019-Sep-10 20:30N 54°40' W 005°21'4 7.9
2019-Sep-10 19:58N 54°42' W 005°28'4 8.4
2019-Sep-10 19:28N 54°42' W 005°35'3 6.0
2019-Sep-10 19:00N 54°42' W 005°40'2 4.1
2019-Sep-10 18:29N 54°41' W 005°43'2 4.1
2019-Sep-10 18:00N 54°41' W 005°47'1 2.7
2019-Sep-10 17:29N 54°40' W 005°49'3 5.3
2019-Sep-10 17:00N 54°39' W 005°52'3 4.9
2019-Sep-10 16:26N 54°36' W 005°55'0 0.0
2019-Sep-10 15:49N 54°36' W 005°55'0 0.0
2019-Sep-10 15:28N 54°36' W 005°55'0 0.0
2019-Sep-10 14:58N 54°36' W 005°55'0 0.0
2019-Sep-10 07:32N 54°36' W 005°55'0 0.0
2019-Sep-10 07:26N 54°36' W 005°55'0 0.0
2019-Sep-10 06:59N 54°36' W 005°55'0 0.0
2019-Sep-10 06:26N 54°36' W 005°55'0 0.0
2019-Sep-10 05:56N 54°36' W 005°55'0 0.0
2019-Sep-10 05:20N 54°36' W 005°55'0 0.0
2019-Sep-10 04:56N 54°36' W 005°55'0 0.0
2019-Sep-10 04:29N 54°36' W 005°55'0 0.0
2019-Sep-10 03:59N 54°36' W 005°55'0 0.0
2019-Sep-10 03:28N 54°36' W 005°55'0 0.0
2019-Sep-10 02:56N 54°36' W 005°55'0 0.0
2019-Sep-10 02:29N 54°36' W 005°55'0 0.0
2019-Sep-10 01:59N 54°36' W 005°55'0 0.0
2019-Sep-10 01:29N 54°36' W 005°55'0 0.0
2019-Sep-10 00:56N 54°36' W 005°55'0 0.0
2019-Sep-10 00:29N 54°36' W 005°55'0 0.0
2019-Sep-09 23:59N 54°36' W 005°55'0 0.0
2019-Sep-09 23:29N 54°36' W 005°55'0 0.0
2019-Sep-09 22:53N 54°36' W 005°55'0 0.0
2019-Sep-09 22:26N 54°36' W 005°55'0 0.0
2019-Sep-09 21:59N 54°36' W 005°55'0 0.0
2019-Sep-09 21:26N 54°36' W 005°55'0 0.0
2019-Sep-09 20:35N 54°36' W 005°55'0 0.1
2019-Sep-09 20:29N 54°36' W 005°55'0 0.0
2019-Sep-09 19:56N 54°36' W 005°55'0 0.0
2019-Sep-09 19:29N 54°36' W 005°55'0 0.0
2019-Sep-09 18:59N 54°36' W 005°55'0 0.0
2019-Sep-09 18:17N 54°36' W 005°55'0 0.0
2019-Sep-09 17:53N 54°36' W 005°55'0 0.0
2019-Sep-09 17:29N 54°36' W 005°55'0 0.0
2019-Sep-09 16:59N 54°36' W 005°55'0 0.0
2019-Sep-09 16:23N 54°36' W 005°55'0 0.0
2019-Sep-09 15:59N 54°36' W 005°55'0 0.0
2019-Sep-09 15:26N 54°36' W 005°55'0 0.0
2019-Sep-09 14:57N 54°36' W 005°55'0 0.0
2019-Sep-09 14:27N 54°36' W 005°55'0 0.0
2019-Sep-09 14:00N 54°36' W 005°55'0 0.0
2019-Sep-09 13:21N 54°36' W 005°55'0 0.0
2019-Sep-09 12:54N 54°36' W 005°55'0 0.0
2019-Sep-09 12:24N 54°36' W 005°55'0 0.0
2019-Sep-09 12:00N 54°36' W 005°55'0 0.0
2019-Sep-09 11:21N 54°36' W 005°55'0 0.8
2019-Sep-09 10:56N 54°37' W 005°55'3 5.7
2019-Sep-09 10:28N 54°39' W 005°52'3 5.3
2019-Sep-09 09:56N 54°40' W 005°48'2 5.3
2019-Sep-09 09:30N 54°41' W 005°44'3 5.1
2019-Sep-09 09:00N 54°40' W 005°40'1 1.2
2019-Sep-09 08:29N 54°40' W 005°39'0 0.0
2019-Sep-09 07:53N 54°40' W 005°39'0 0.0
2019-Sep-09 07:29N 54°40' W 005°39'0 0.1
2019-Sep-09 06:59N 54°40' W 005°39'0 0.0
2019-Sep-09 06:26N 54°40' W 005°39'0 0.0
2019-Sep-09 05:59N 54°40' W 005°39'0 0.0
2019-Sep-09 05:29N 54°40' W 005°39'0 0.0
2019-Sep-09 04:59N 54°40' W 005°39'0 0.0
2019-Sep-09 04:29N 54°40' W 005°39'0 0.0
2019-Sep-09 03:59N 54°40' W 005°39'0 0.4
2019-Sep-09 03:30N 54°41' W 005°39'2 4.3
2019-Sep-09 02:59N 54°42' W 005°36'4 4.4
2019-Sep-09 01:59N 54°42' W 005°28'6 4.9
2019-Sep-09 00:51N 54°38' W 005°22'6 4.6
2019-Sep-08 23:30N 54°33' W 005°15'  
2019-Sep-05 07:06N 53°07' W 005°58'2 5.5
2019-Sep-05 06:48N 53°06' W 005°59'1 4.9
2019-Sep-05 06:30N 53°04' W 005°60'2 4.8
2019-Sep-05 06:00N 53°02' W 006°01'2 4.8
2019-Sep-05 05:30N 52°59' W 006°02'1 1.0
2019-Sep-05 04:59N 52°59' W 006°02'0 0.0
2019-Sep-05 04:29N 52°59' W 006°02'0 0.0
2019-Sep-05 03:56N 52°59' W 006°02'0 0.0
2019-Sep-05 03:23N 52°59' W 006°02'0 0.0
2019-Sep-05 02:59N 52°59' W 006°02'0 0.0
2019-Sep-05 01:59N 52°59' W 006°02'0 0.0
2019-Sep-05 01:29N 52°59' W 006°02'0 0.0
2019-Sep-05 00:59N 52°59' W 006°02'0 0.0
2019-Sep-05 00:17N 52°59' W 006°02'0 0.0
2019-Sep-04 23:38N 52°59' W 006°02'0 0.0
2019-Sep-04 23:29N 52°59' W 006°02'0 0.0
2019-Sep-04 22:53N 52°59' W 006°02'0 0.0
2019-Sep-04 22:23N 52°59' W 006°02'0 0.0
2019-Sep-04 21:57N 52°59' W 006°02'0 0.0
2019-Sep-04 21:18N 52°59' W 006°02'0 0.0
2019-Sep-04 20:57N 52°59' W 006°02'0 0.0
2019-Sep-04 20:29N 52°59' W 006°02'0 0.0
2019-Sep-04 19:59N 52°59' W 006°02'0 0.0
2019-Sep-04 19:23N 52°59' W 006°02'0 0.0
2019-Sep-04 18:53N 52°59' W 006°02'0 0.0
2019-Sep-04 18:23N 52°59' W 006°02'0 0.0
2019-Sep-04 17:53N 52°59' W 006°02'0 0.0
2019-Sep-04 17:29N 52°59' W 006°02'0 0.0
2019-Sep-04 16:59N 52°59' W 006°02'0 0.0
2019-Sep-04 16:17N 52°59' W 006°02'0 0.0
2019-Sep-04 15:59N 52°59' W 006°02'  

Dump ship's entire track history